Time;durP1;ratioP1;P1;durP2;ratioP2;P2;SDS_P1;SDS_P2;PMS_P1;PMS_P2;Temp;Humidity;BMP_temperature;BMP_pressure;BME280_temperature;BME280_humidity;BME280_pressure;Samples;Min_cycle;Max_cycle;Signal;HPM_P1;HPM_P2
2023/01/06 00:01:42;;;;;;;23.73;8.17;;;;;;;9.81;100.00;99591.53;5027909;28;20193;-81
2023/01/06 00:04:11;;;;;;;21.20;8.83;;;;;;;9.70;100.00;99590.31;4947735;29;20314;-82
2023/01/06 00:06:42;;;;;;;21.30;9.00;;;;;;;9.72;100.00;99579.66;4952966;28;20209;-81
2023/01/06 00:09:10;;;;;;;23.50;8.47;;;;;;;9.76;100.00;99581.22;4874635;29;20227;-81
2023/01/06 00:11:42;;;;;;;19.90;8.30;;;;;;;9.78;100.00;99575.84;4855263;29;20211;-80
2023/01/06 00:14:22;;;;;;;23.63;7.80;;;;;;;9.81;100.00;99575.66;4853968;29;20335;-81
2023/01/06 00:16:50;;;;;;;21.73;9.43;;;;;;;9.79;100.00;99572.25;4855945;29;20199;-81
2023/01/06 00:19:19;;;;;;;24.53;9.27;;;;;;;9.91;100.00;99577.72;4858265;29;20204;-82
2023/01/06 00:21:48;;;;;;;23.17;10.70;;;;;;;9.79;100.00;99569.59;4916371;29;20212;-82
2023/01/06 00:24:16;;;;;;;23.67;9.60;;;;;;;9.79;100.00;99564.31;4946865;29;20244;-79
2023/01/06 00:26:46;;;;;;;27.33;10.37;;;;;;;9.77;100.00;99563.56;4938016;29;20192;-82
2023/01/06 00:29:18;;;;;;;19.63;9.63;;;;;;;9.76;100.00;99560.06;4911184;29;20214;-82
2023/01/06 00:31:49;;;;;;;23.30;10.50;;;;;;;9.65;100.00;99565.03;4912544;29;20317;-82
2023/01/06 00:34:19;;;;;;;21.50;9.87;;;;;;;9.76;100.00;99570.63;4871282;29;20212;-82
2023/01/06 00:36:53;;;;;;;24.60;10.37;;;;;;;9.83;100.00;99557.91;4877011;29;20243;-82
2023/01/06 00:39:24;;;;;;;31.67;14.80;;;;;;;9.73;100.00;99561.06;4877974;29;20277;-82
2023/01/06 00:42:06;;;;;;;26.10;10.80;;;;;;;9.91;100.00;99559.22;4872837;29;20211;-82
2023/01/06 00:44:38;;;;;;;27.23;11.00;;;;;;;9.79;100.00;99561.69;4889927;29;20241;-81
2023/01/06 00:47:09;;;;;;;18.43;10.33;;;;;;;9.87;100.00;99556.81;4923543;29;20235;-81
2023/01/06 00:49:39;;;;;;;24.67;11.20;;;;;;;9.86;100.00;99555.13;4947593;29;20283;-82
2023/01/06 00:52:10;;;;;;;26.33;10.40;;;;;;;9.87;100.00;99544.44;4921958;28;20254;-82
2023/01/06 00:54:39;;;;;;;24.40;11.17;;;;;;;9.86;100.00;99555.13;4949444;29;20204;-80
2023/01/06 00:57:08;;;;;;;21.80;10.53;;;;;;;9.86;100.00;99553.31;4949593;29;20220;-80
2023/01/06 00:59:38;;;;;;;27.77;11.20;;;;;;;9.92;100.00;99542.38;4946740;28;20227;-79
2023/01/06 01:02:08;;;;;;;26.80;10.47;;;;;;;9.74;100.00;99540.75;4955801;28;20197;-79
2023/01/06 01:04:37;;;;;;;26.47;11.37;;;;;;;9.98;100.00;99552.66;4950192;29;20213;-79
2023/01/06 01:07:05;;;;;;;23.20;11.13;;;;;;;9.84;100.00;99557.81;4949737;29;20197;-80
2023/01/06 01:09:39;;;;;;;22.23;10.43;;;;;;;9.88;100.00;99546.16;4960992;28;20222;-80
2023/01/06 01:12:13;;;;;;;21.97;10.30;;;;;;;9.84;100.00;99555.19;4914827;29;20284;-80
2023/01/06 01:14:46;;;;;;;25.53;10.73;;;;;;;9.88;100.00;99555.88;4912274;29;20301;-80
2023/01/06 01:17:18;;;;;;;24.03;10.03;;;;;;;9.81;100.00;99560.66;4910323;29;20206;-80
2023/01/06 01:19:48;;;;;;;29.03;10.67;;;;;;;9.81;100.00;99551.84;4913016;29;20233;-80
2023/01/06 01:22:21;;;;;;;23.13;11.63;;;;;;;9.73;100.00;99555.75;4918134;29;20194;-81
2023/01/06 01:24:50;;;;;;;28.27;10.93;;;;;;;9.87;100.00;99564.75;4879519;29;20215;-80
2023/01/06 01:27:21;;;;;;;20.70;11.23;;;;;;;9.95;100.00;99565.19;4917176;29;20277;-80
2023/01/06 01:29:51;;;;;;;24.57;11.67;;;;;;;9.88;100.00;99563.81;4949928;28;20222;-80
2023/01/06 01:32:22;;;;;;;19.53;9.80;;;;;;;10.05;100.00;99563.75;5011224;28;20202;-80
2023/01/06 01:34:52;;;;;;;23.20;10.33;;;;;;;10.03;100.00;99568.25;5005698;28;20206;-80
2023/01/06 01:37:23;;;;;;;21.67;11.00;;;;;;;9.99;100.00;99562.28;5013541;28;20198;-80
2023/01/06 01:39:53;;;;;;;23.60;11.80;;;;;;;10.15;100.00;99572.03;5009894;28;20209;-79
2023/01/06 01:42:21;;;;;;;20.13;12.83;;;;;;;9.96;100.00;99564.25;5013423;28;20197;-80
2023/01/06 01:45:00;;;;;;;23.77;12.70;;;;;;;10.08;100.00;99568.03;5011813;28;20194;-80
2023/01/06 01:47:43;;;;;;;30.60;13.77;;;;;;;10.13;100.00;99560.66;4951795;29;20215;-80
2023/01/06 01:50:26;;;;;;;23.97;12.50;;;;;;;10.08;100.00;99568.88;5017516;28;20220;-81
2023/01/06 01:52:58;;;;;;;31.67;13.57;;;;;;;10.11;100.00;99554.59;5031348;28;20249;-81
2023/01/06 01:55:31;;;;;;;25.03;13.13;;;;;;;10.10;100.00;99556.41;5028515;28;20194;-81
2023/01/06 01:58:03;;;;;;;28.43;14.00;;;;;;;9.92;100.00;99562.69;5025060;28;20202;-80
2023/01/06 02:00:34;;;;;;;28.10;13.60;;;;;;;9.93;100.00;99562.63;5034247;28;20193;-80
2023/01/06 02:03:06;;;;;;;31.00;14.87;;;;;;;9.99;100.00;99554.34;5028505;28;20234;-81
2023/01/06 02:05:40;;;;;;;31.87;16.70;;;;;;;9.86;100.00;99561.25;4997133;28;20197;-80
2023/01/06 02:08:16;;;;;;;26.73;15.13;;;;;;;9.98;100.00;99565.03;4974533;28;20202;-80
2023/01/06 02:10:45;;;;;;;23.90;14.07;;;;;;;10.01;100.00;99565.69;4987972;28;20215;-80
2023/01/06 02:13:13;;;;;;;24.73;14.30;;;;;;;9.95;100.00;99557.25;4987166;28;20250;-80
2023/01/06 02:15:44;;;;;;;26.00;14.57;;;;;;;9.92;100.00;99555.63;4988965;28;20198;-80
2023/01/06 02:18:37;;;;;;;25.30;14.90;;;;;;;10.07;100.00;99547.78;4997250;28;20199;-81
2023/01/06 02:21:20;;;;;;;29.60;14.90;;;;;;;10.00;100.00;99553.41;4988612;28;20203;-80
2023/01/06 02:24:08;;;;;;;23.77;14.07;;;;;;;10.06;100.00;99554.88;5010035;28;20219;-80
2023/01/06 02:27:03;;;;;;;24.87;14.43;;;;;;;10.19;100.00;99550.59;5027111;28;20198;-80
2023/01/06 02:30:11;;;;;;;27.63;15.53;;;;;;;10.15;100.00;99542.91;5025639;28;20205;-80
2023/01/06 02:33:19;;;;;;;22.67;13.77;;;;;;;10.09;100.00;99548.53;5020644;28;20640;-81
2023/01/06 02:36:04;;;;;;;24.67;14.03;;;;;;;10.08;100.00;99544.19;5089351;28;20192;-80
2023/01/06 02:39:10;;;;;;;26.77;13.83;;;;;;;10.16;100.00;99540.19;5080912;28;20199;-80
2023/01/06 02:41:46;;;;;;;21.73;13.50;;;;;;;10.17;100.00;99531.31;5085284;28;20200;-81
2023/01/06 02:44:21;;;;;;;23.07;14.27;;;;;;;10.19;100.00;99521.47;5083412;28;20195;-80
2023/01/06 02:47:04;;;;;;;24.77;15.20;;;;;;;10.20;100.00;99522.31;5083242;28;20196;-80
2023/01/06 02:49:48;;;;;;;21.33;14.03;;;;;;;10.18;100.00;99521.56;5087972;28;20245;-80
2023/01/06 02:52:24;;;;;;;23.10;14.80;;;;;;;10.12;100.00;99528.03;5088169;28;20192;-80
2023/01/06 02:54:59;;;;;;;21.60;13.70;;;;;;;10.15;100.00;99516.47;5040289;28;20252;-80
2023/01/06 02:57:35;;;;;;;22.23;13.67;;;;;;;10.20;100.00;99525.81;5093669;28;20183;-80
2023/01/06 03:00:11;;;;;;;24.77;13.90;;;;;;;10.10;100.00;99534.38;5085336;28;20646;-80
2023/01/06 03:02:45;;;;;;;20.33;12.77;;;;;;;10.08;100.00;99529.16;5029187;28;20232;-81
2023/01/06 03:05:18;;;;;;;19.70;13.63;;;;;;;10.11;100.00;99546.66;5016793;28;20220;-80
2023/01/06 03:07:50;;;;;;;23.30;13.60;;;;;;;10.03;100.00;99539.16;4989743;28;20191;-80
2023/01/06 03:10:23;;;;;;;23.63;13.97;;;;;;;10.06;100.00;99522.25;4985572;28;20299;-80
2023/01/06 03:12:54;;;;;;;21.93;13.57;;;;;;;10.07;100.00;99535.41;4974727;28;20254;-80
2023/01/06 03:15:26;;;;;;;18.90;11.20;;;;;;;10.16;100.00;99529.59;4974730;28;20208;-80
2023/01/06 03:17:54;;;;;;;14.80;8.73;;;;;;;10.17;100.00;99519.88;4968397;28;20251;-79
2023/01/06 03:20:24;;;;;;;11.50;7.40;;;;;;;10.13;100.00;99515.66;4972926;28;20195;-80
2023/01/06 03:22:55;;;;;;;8.63;5.70;;;;;;;10.24;100.00;99505.38;4989404;28;20203;-80
2023/01/06 03:25:24;;;;;;;9.23;5.33;;;;;;;10.18;100.00;99505.69;4993054;28;20203;-80
2023/01/06 03:27:52;;;;;;;6.97;5.10;;;;;;;10.26;100.00;99501.69;4984428;28;20199;-79
2023/01/06 03:30:23;;;;;;;9.23;6.03;;;;;;;10.28;100.00;99502.44;4993637;28;20191;-80
2023/01/06 03:33:01;;;;;;;7.83;5.67;;;;;;;10.43;100.00;99498.09;5058553;28;20720;-80
2023/01/06 03:35:51;;;;;;;7.50;5.37;;;;;;;10.52;100.00;99500.19;5088947;28;20219;-80
2023/01/06 03:38:27;;;;;;;6.00;4.80;;;;;;;10.50;100.00;99495.91;5046304;28;20219;-80
2023/01/06 03:41:05;;;;;;;6.93;4.63;;;;;;;10.57;100.00;99492.81;5043566;28;20201;-80
2023/01/06 03:43:39;;;;;;;8.20;5.27;;;;;;;10.66;100.00;99501.19;5046715;28;20246;-80
2023/01/06 03:46:23;;;;;;;7.00;4.90;;;;;;;10.66;100.00;99482.63;5041990;28;20351;-80
2023/01/06 03:49:04;;;;;;;7.03;4.70;;;;;;;10.69;100.00;99472.69;5047177;28;20195;-80
2023/01/06 03:51:53;;;;;;;8.47;4.80;;;;;;;10.63;100.00;99481.03;5045268;28;20267;-80
2023/01/06 03:54:36;;;;;;;7.80;5.70;;;;;;;10.68;100.00;99473.63;5044464;28;20200;-81
2023/01/06 03:57:10;;;;;;;8.97;5.23;;;;;;;10.61;100.00;99469.66;5074359;28;20211;-80
2023/01/06 03:59:45;;;;;;;6.00;4.47;;;;;;;10.63;100.00;99462.47;5081864;28;20252;-80
2023/01/06 04:02:14;;;;;;;5.43;3.97;;;;;;;10.64;100.00;99464.19;5036141;28;20284;-80
2023/01/06 04:04:42;;;;;;;5.27;3.50;;;;;;;10.73;100.00;99468.09;5081617;28;20198;-80
2023/01/06 04:07:13;;;;;;;5.07;3.53;;;;;;;10.70;100.00;99455.84;5088371;28;20187;-80
2023/01/06 04:09:43;;;;;;;3.47;2.80;;;;;;;10.73;100.00;99474.25;5083935;28;20194;-80
2023/01/06 04:14:57;;;;;;;3.13;2.50;;;;;;;10.53;100.00;99470.13;5092401;28;20188;-80
2023/01/06 04:17:26;;;;;;;5.57;2.60;;;;;;;10.61;100.00;99453.75;5082471;28;20204;-80
2023/01/06 04:19:55;;;;;;;3.23;2.30;;;;;;;10.69;100.00;99458.59;5083943;28;20184;-80
2023/01/06 04:22:25;;;;;;;2.63;2.07;;;;;;;10.65;100.00;99450.00;5084013;28;20639;-81
2023/01/06 04:24:54;;;;;;;2.37;1.80;;;;;;;10.55;100.00;99448.84;5049097;28;20200;-80
2023/01/06 04:27:25;;;;;;;3.77;1.40;;;;;;;10.69;100.00;99448.00;5039717;28;20488;-80
2023/01/06 04:29:53;;;;;;;1.50;1.30;;;;;;;10.45;100.00;99448.53;5043863;28;20263;-80
2023/01/06 04:32:22;;;;;;;1.97;1.13;;;;;;;10.39;100.00;99440.06;5039143;28;20217;-81
2023/01/06 04:34:50;;;;;;;1.17;1.00;;;;;;;10.41;100.00;99444.34;5040744;28;20247;-80
2023/01/06 04:37:19;;;;;;;1.67;0.80;;;;;;;10.53;100.00;99430.38;4968270;28;20247;-80
2023/01/06 04:39:59;;;;;;;0.70;0.70;;;;;;;10.51;100.00;99431.41;4966770;28;20195;-80
2023/01/06 04:42:27;;;;;;;0.50;0.50;;;;;;;10.45;100.00;99419.41;4973917;28;20194;-80
2023/01/06 04:44:56;;;;;;;0.40;0.40;;;;;;;10.50;100.00;99413.81;5002340;28;20202;-80
2023/01/06 04:47:25;;;;;;;1.90;0.30;;;;;;;10.51;100.00;99402.28;5005153;28;20202;-80
2023/01/06 04:49:55;;;;;;;0.50;0.27;;;;;;;10.67;100.00;99403.06;5007677;28;20237;-80
2023/01/06 04:52:24;;;;;;;0.30;0.30;;;;;;;10.56;100.00;99400.22;5005054;28;20222;-80
2023/01/06 04:54:52;;;;;;;0.77;0.33;;;;;;;10.53;100.00;99390.66;5029324;28;20306;-80
2023/01/06 04:57:22;;;;;;;0.67;0.37;;;;;;;10.45;100.00;99382.31;5084469;28;20221;-80
2023/01/06 04:59:54;;;;;;;0.30;0.20;;;;;;;10.49;100.00;99381.19;5010404;28;20195;-80
2023/01/06 05:02:22;;;;;;;0.93;0.50;;;;;;;10.55;100.00;99378.19;5009455;28;20230;-80
2023/01/06 05:04:52;;;;;;;0.40;0.40;;;;;;;10.52;100.00;99370.44;5005891;28;20206;-80
2023/01/06 05:07:22;;;;;;;0.40;0.30;;;;;;;10.55;100.00;99372.88;4936029;29;20197;-80
2023/01/06 05:09:52;;;;;;;0.67;0.40;;;;;;;10.52;100.00;99367.78;4937073;29;20201;-80
2023/01/06 05:12:24;;;;;;;1.40;0.30;;;;;;;10.57;100.00;99365.69;4933918;29;20233;-80
2023/01/06 05:14:52;;;;;;;0.37;0.30;;;;;;;10.47;100.00;99369.84;4933950;29;20268;-80
2023/01/06 05:17:22;;;;;;;1.53;0.40;;;;;;;10.46;100.00;99368.13;4948479;28;20191;-81
2023/01/06 05:19:51;;;;;;;1.60;0.30;;;;;;;10.56;100.00;99366.63;5005680;28;20225;-80
2023/01/06 05:22:19;;;;;;;0.47;0.40;;;;;;;10.40;100.00;99365.00;5011545;28;20267;-80
2023/01/06 05:24:48;;;;;;;0.53;0.30;;;;;;;10.50;100.00;99374.09;5021404;28;20189;-80
2023/01/06 05:27:18;;;;;;;0.30;0.30;;;;;;;10.58;100.00;99372.69;5089048;28;20670;-80
2023/01/06 05:29:49;;;;;;;0.90;0.40;;;;;;;10.63;100.00;99374.22;5088703;28;20240;-80
2023/01/06 05:32:17;;;;;;;1.20;0.40;;;;;;;10.60;100.00;99381.38;4982555;28;20259;-80
2023/01/06 05:34:47;;;;;;;0.50;0.40;;;;;;;10.56;100.00;99374.59;4986500;28;20203;-79
2023/01/06 05:37:17;;;;;;;1.10;0.50;;;;;;;10.53;100.00;99363.34;4992983;28;20198;-79
2023/01/06 05:39:45;;;;;;;0.57;0.27;;;;;;;10.47;100.00;99369.84;4984508;28;20278;-80
2023/01/06 05:42:16;;;;;;;0.93;0.60;;;;;;;10.44;100.00;99363.88;4987939;28;20203;-80
2023/01/06 05:44:45;;;;;;;1.20;0.50;;;;;;;10.43;100.00;99363.03;4985471;28;20202;-80
2023/01/06 05:47:15;;;;;;;1.27;0.87;;;;;;;10.56;100.00;99360.50;4954762;29;20211;-80
2023/01/06 05:49:43;;;;;;;1.23;0.50;;;;;;;10.39;100.00;99364.16;4971353;28;20208;-81
2023/01/06 05:52:15;;;;;;;0.67;0.60;;;;;;;10.47;100.00;99350.44;5046561;28;20219;-81
2023/01/06 05:54:45;;;;;;;0.63;0.50;;;;;;;10.39;100.00;99355.34;5050183;28;20200;-80
2023/01/06 05:57:15;;;;;;;0.57;0.40;;;;;;;10.28;100.00;99367.44;5043155;28;20197;-79
2023/01/06 05:59:46;;;;;;;0.70;0.40;;;;;;;10.42;100.00;99360.44;5046266;28;20207;-80
2023/01/06 06:02:16;;;;;;;1.40;0.40;;;;;;;10.30;100.00;99377.94;5049306;28;20225;-80
2023/01/06 06:04:48;;;;;;;0.80;0.50;;;;;;;10.34;100.00;99366.22;5046750;28;20223;-80
2023/01/06 06:07:17;;;;;;;1.30;0.60;;;;;;;10.36;100.00;99374.06;5089519;28;20200;-80
2023/01/06 06:09:46;;;;;;;1.27;0.50;;;;;;;10.37;100.00;99363.38;5091888;28;20184;-80
2023/01/06 06:12:15;;;;;;;0.53;0.30;;;;;;;10.46;100.00;99372.59;5037892;28;20223;-80
2023/01/06 06:14:46;;;;;;;2.00;0.43;;;;;;;10.40;100.00;99362.34;5092058;28;20203;-79
2023/01/06 06:17:16;;;;;;;1.97;0.40;;;;;;;10.41;100.00;99364.03;5088273;28;20234;-80
2023/01/06 06:19:44;;;;;;;1.00;0.57;;;;;;;10.34;100.00;99357.44;5086104;28;20204;-80
2023/01/06 06:22:12;;;;;;;1.13;0.50;;;;;;;10.23;100.00;99358.94;5084248;28;20191;-79
2023/01/06 06:24:41;;;;;;;1.87;0.60;;;;;;;10.21;100.00;99355.47;5009851;28;20186;-79
2023/01/06 06:27:10;;;;;;;0.90;0.50;;;;;;;10.17;100.00;99355.75;5004110;28;20253;-79
2023/01/06 06:29:40;;;;;;;0.97;0.50;;;;;;;10.22;100.00;99367.78;5005600;28;20202;-80
2023/01/06 06:32:08;;;;;;;0.57;0.33;;;;;;;10.23;100.00;99371.28;5005897;28;20253;-79
2023/01/06 06:34:38;;;;;;;1.23;0.50;;;;;;;10.30;100.00;99367.34;5004122;28;20191;-79
2023/01/06 06:37:07;;;;;;;1.37;0.50;;;;;;;10.21;100.00;99367.84;5008531;28;20214;-79
2023/01/06 06:39:35;;;;;;;2.53;0.60;;;;;;;10.23;100.00;99368.63;5004709;28;20194;-80
2023/01/06 06:42:04;;;;;;;1.30;0.60;;;;;;;10.29;100.00;99357.69;5012637;28;20207;-80
2023/01/06 06:44:32;;;;;;;3.27;0.60;;;;;;;10.21;100.00;99365.19;5086519;28;20265;-80
2023/01/06 06:47:01;;;;;;;2.33;0.70;;;;;;;10.29;100.00;99366.50;5084356;28;20199;-80
2023/01/06 06:49:29;;;;;;;1.77;0.70;;;;;;;10.26;100.00;99363.19;5090078;28;20188;-80
2023/01/06 06:51:59;;;;;;;1.30;0.50;;;;;;;10.32;100.00;99363.66;5024671;28;20194;-79
2023/01/06 06:54:28;;;;;;;2.77;0.70;;;;;;;10.28;100.00;99362.13;5024005;28;20728;-80
2023/01/06 06:56:57;;;;;;;1.10;0.60;;;;;;;10.28;100.00;99361.28;5029250;28;20194;-80
2023/01/06 07:07:53;;;;;;;1.47;0.60;;;;;;;10.37;100.00;99371.34;5050085;28;20230;-79
2023/01/06 09:12:48;;;;;;;1.67;0.80;;;;;;;10.16;100.00;99426.38;5035872;28;20252;-82
2023/01/06 10:25:07;;;;;;;1.47;0.90;;;;;;;10.91;100.00;99434.34;5015162;28;20208;-81
2023/01/06 10:28:10;;;;;;;1.60;1.10;;;;;;;10.88;100.00;99433.56;4973290;28;20199;-81
2023/01/06 11:20:40;;;;;;;2.60;1.87;;;;;;;11.15;100.00;99377.13;5033542;28;20208;-81
2023/01/06 12:37:10;;;;;;;0.90;0.70;;;;;;;11.08;100.00;99362.56;5012524;28;20225;-80
2023/01/06 14:30:29;;;;;;;4.53;2.30;;;;;;;11.22;100.00;99397.03;5015299;28;20661;-81
2023/01/06 16:20:21;;;;;;;6.90;6.37;;;;;;;11.20;100.00;99421.94;5032709;28;20180;-80
2023/01/06 18:45:28;;;;;;;1.70;1.60;;;;;;;10.54;100.00;99494.81;5037840;28;20184;-80
2023/01/06 19:00:42;;;;;;;1.43;1.20;;;;;;;10.53;100.00;99501.91;5034923;28;20188;-81
2023/01/06 21:01:04;;;;;;;5.30;2.30;;;;;;;10.24;100.00;99505.38;5011590;28;20229;-81
2023/01/06 23:01:52;;;;;;;6.87;4.13;;;;;;;10.07;100.00;99521.31;5033949;28;20228;-80
2023/01/06 23:08:02;;;;;;;6.60;5.50;;;;;;;9.84;100.00;99523.44;5033723;28;20177;-80
2023/01/06 23:14:12;;;;;;;8.10;5.80;;;;;;;9.90;100.00;99531.03;5033645;28;20285;-80
